KONA/ONA METAR and TAF weather

Enter ICAO airport designator
Station Type Date Time Source
KONA METAR 2020/01/23 21:15 UTC NOAA

KONA 232115Z AUTO 00000KT 2SM RA SCT006 OVC011 00/M01 A3002 RMK AO2


Station Type Date Time Source
KONA Decoded METAR 2020/01/23 21:15 UTC NOAA

Winona, Winona Municipal Airport-Max Conrad Field, MN, United States (KONA) 44-05N 091-42W
Jan 23, 2020 - 04:15 PM EST / 2020.01.23 2115 UTC
Wind: Calm:0
Visibility: 2 mile(s):0
Sky conditions: overcast
Weather: rain
Temperature: 32 F (0 C)
Dew Point: 30 F (-1 C)
Relative Humidity: 92%
Pressure (altimeter): 30.02 in. Hg (1016 hPa)
ob: KONA 232115Z AUTO 00000KT 2SM RA SCT006 OVC011 00/M01 A3002 RMK AO2
cycle: 21

Station Type Date Time Source
KONA TAF UTC NOAA

Error!

Example: see airport list